createdAt,value
2023-02-21T00:04:15.764Z,10.3
2023-02-21T00:09:16.084Z,10.3
2023-02-21T00:14:15.730Z,10.3
2023-02-21T00:19:15.693Z,10.3
2023-02-21T00:24:15.696Z,10.3
2023-02-21T00:29:15.658Z,10.3
2023-02-21T00:34:15.689Z,10.3
2023-02-21T00:39:15.692Z,10.3
2023-02-21T00:44:15.667Z,10.3
2023-02-21T00:49:15.702Z,10.3
2023-02-21T00:54:15.672Z,10.3
2023-02-21T00:59:15.740Z,10.3
2023-02-21T01:04:15.696Z,10.3
2023-02-21T01:09:15.664Z,10.3
2023-02-21T01:14:15.656Z,10.3
2023-02-21T01:19:15.696Z,10.3
2023-02-21T01:24:15.665Z,10.3
2023-02-21T01:29:15.689Z,10.3
2023-02-21T01:34:15.692Z,10.3
2023-02-21T01:39:15.705Z,10.3
2023-02-21T01:44:15.681Z,10.3
2023-02-21T01:49:15.676Z,10.3
2023-02-21T01:54:15.707Z,10.3
2023-02-21T01:59:15.704Z,10.3
2023-02-21T02:04:15.715Z,10.3
2023-02-21T02:09:15.674Z,10.4
2023-02-21T02:14:15.684Z,10.4
2023-02-21T02:19:15.789Z,10.5
2023-02-21T02:24:15.668Z,10.5
2023-02-21T02:29:15.666Z,10.5
2023-02-21T02:34:15.656Z,10.4
2023-02-21T02:39:15.686Z,10.4
2023-02-21T02:44:15.684Z,10.5
2023-02-21T02:49:15.657Z,10.5
2023-02-21T02:54:15.654Z,10.5
2023-02-21T02:59:15.689Z,10.5
2023-02-21T03:04:15.652Z,10.5
2023-02-21T03:09:15.682Z,10.6
2023-02-21T03:14:15.653Z,10.6
2023-02-21T03:19:15.681Z,10.6
2023-02-21T03:24:15.643Z,10.6
2023-02-21T03:29:15.656Z,10.6
2023-02-21T03:34:15.649Z,10.7
2023-02-21T03:39:15.671Z,10.7
2023-02-21T03:44:15.653Z,10.7
2023-02-21T03:49:15.644Z,10.7
2023-02-21T03:54:15.646Z,10.7
2023-02-21T03:59:15.684Z,10.7
2023-02-21T04:04:15.642Z,10.7
2023-02-21T04:09:15.645Z,10.8
2023-02-21T04:14:15.657Z,10.7
2023-02-21T04:19:15.779Z,10.8
2023-02-21T04:24:15.647Z,10.8
2023-02-21T04:29:15.775Z,10.8
2023-02-21T04:34:15.643Z,10.8
2023-02-21T04:39:15.685Z,10.8
2023-02-21T04:44:15.658Z,10.9
2023-02-21T04:49:15.657Z,10.8
2023-02-21T04:54:15.645Z,10.8
2023-02-21T04:59:15.849Z,10.9
2023-02-21T05:04:15.676Z,10.8
2023-02-21T05:09:15.633Z,10.9
2023-02-21T05:14:15.648Z,11
2023-02-21T05:19:15.661Z,11
2023-02-21T05:24:15.645Z,11.1
2023-02-21T05:29:15.633Z,11
2023-02-21T05:34:15.641Z,11
2023-02-21T05:39:15.724Z,11
2023-02-21T05:44:15.633Z,11
2023-02-21T05:49:15.636Z,11.1
2023-02-21T05:54:15.646Z,11.1
2023-02-21T05:59:15.670Z,11.1
2023-02-21T06:04:15.633Z,11
2023-02-21T06:09:15.623Z,11
2023-02-21T06:14:15.629Z,11
2023-02-21T06:19:15.687Z,11
2023-02-21T06:24:15.613Z,11
2023-02-21T06:29:15.656Z,11
2023-02-21T06:34:15.629Z,11
2023-02-21T06:39:15.650Z,11
2023-02-21T06:44:15.621Z,11.1
2023-02-21T06:49:15.640Z,11.1
2023-02-21T06:54:15.623Z,11.1
2023-02-21T06:59:15.766Z,11
2023-02-21T07:04:15.658Z,11
2023-02-21T07:09:15.637Z,11.1
2023-02-21T07:14:15.610Z,11.1
2023-02-21T07:19:15.638Z,11.1
2023-02-21T07:24:15.652Z,11.1
2023-02-21T07:29:15.634Z,11.1
2023-02-21T07:34:15.587Z,11.2
2023-02-21T07:39:15.672Z,11.2
2023-02-21T07:44:15.613Z,11.2
2023-02-21T07:49:15.675Z,11.2
2023-02-21T07:54:15.630Z,11.3
2023-02-21T07:59:15.646Z,11.2
2023-02-21T08:04:15.661Z,11.2
2023-02-21T08:09:15.676Z,11.3
2023-02-21T08:14:15.585Z,11.3
2023-02-21T08:19:15.637Z,11.4
2023-02-21T08:24:15.588Z,11.4
2023-02-21T08:29:15.628Z,11.5
2023-02-21T08:34:15.606Z,11.5
2023-02-21T08:39:15.796Z,11.4
2023-02-21T08:44:15.625Z,11.5
2023-02-21T08:49:15.614Z,11.5
2023-02-21T08:54:15.617Z,11.4
2023-02-21T08:59:15.758Z,11.5
2023-02-21T09:04:15.577Z,11.4
2023-02-21T09:09:15.584Z,11.5
2023-02-21T09:14:15.622Z,11.5
2023-02-21T09:19:15.600Z,11.5
2023-02-21T09:24:15.579Z,11.6
2023-02-21T09:29:15.580Z,11.6
2023-02-21T09:34:15.570Z,11.6
2023-02-21T09:39:15.624Z,11.6
2023-02-21T09:44:15.787Z,11.6
2023-02-21T09:49:15.984Z,11.6
2023-02-21T09:54:15.573Z,11.7
2023-02-21T09:59:15.661Z,11.7
2023-02-21T10:04:15.624Z,11.6
2023-02-21T10:09:15.573Z,11.7
2023-02-21T10:14:15.550Z,11.7
2023-02-21T10:19:15.582Z,11.7
2023-02-21T10:24:15.568Z,11.7
2023-02-21T10:29:15.558Z,11.7
2023-02-21T10:34:15.654Z,11.7
2023-02-21T10:39:15.833Z,11.7
2023-02-21T10:44:15.553Z,11.8
2023-02-21T10:49:15.534Z,11.8
2023-02-21T10:54:15.569Z,11.9
2023-02-21T10:59:15.553Z,12
2023-02-21T11:04:15.522Z,12
2023-02-21T11:09:15.564Z,12.1
2023-02-21T11:14:15.523Z,12.1
2023-02-21T11:19:15.588Z,12.2
2023-02-21T11:24:15.635Z,12.2
2023-02-21T11:29:15.644Z,12.2
2023-02-21T11:34:15.564Z,12.3
2023-02-21T11:39:15.654Z,12.3
2023-02-21T11:44:15.561Z,12.3
2023-02-21T11:49:15.563Z,12.3
2023-02-21T11:54:15.612Z,12.3
2023-02-21T11:59:15.616Z,12.3
2023-02-21T12:04:15.604Z,12.4
2023-02-21T12:09:15.545Z,12.6
2023-02-21T12:14:15.548Z,12.7
2023-02-21T12:19:15.571Z,12.8
2023-02-21T12:24:15.539Z,13
2023-02-21T12:29:15.535Z,13.1
2023-02-21T12:34:15.698Z,13.2
2023-02-21T12:39:15.690Z,13.3
2023-02-21T12:44:15.545Z,13.2
2023-02-21T12:49:15.600Z,13.2
2023-02-21T12:54:15.553Z,13.2
2023-02-21T12:59:15.567Z,13.3
2023-02-21T13:04:15.542Z,13.2
2023-02-21T13:09:15.544Z,13.1
2023-02-21T13:14:15.631Z,13.1
2023-02-21T13:19:15.584Z,13
2023-02-21T13:24:15.542Z,13
2023-02-21T13:29:15.599Z,12.9
2023-02-21T13:34:15.537Z,12.9
2023-02-21T13:39:15.551Z,12.8
2023-02-21T13:44:15.531Z,12.7
2023-02-21T13:49:15.573Z,12.7
2023-02-21T13:54:15.531Z,12.7
2023-02-21T13:59:15.541Z,12.6
2023-02-21T14:04:15.563Z,12.6
2023-02-21T14:09:15.516Z,12.5
2023-02-21T14:14:15.516Z,12.5
2023-02-21T14:19:15.539Z,12.5
2023-02-21T14:24:15.516Z,12.5
2023-02-21T14:29:15.558Z,12.5
2023-02-21T14:34:15.525Z,12.4
2023-02-21T14:39:15.539Z,12.4
2023-02-21T14:44:15.501Z,12.4
2023-02-21T14:49:17.356Z,12.4
2023-02-21T14:54:15.516Z,12.3
2023-02-21T14:59:15.618Z,12.4
2023-02-21T15:04:15.585Z,12.3
2023-02-21T15:09:15.517Z,12.3
2023-02-21T15:14:15.499Z,12.3
2023-02-21T15:19:15.549Z,12.3
2023-02-21T15:24:15.501Z,12.3
2023-02-21T15:29:15.512Z,12.3
2023-02-21T15:34:15.590Z,12.3
2023-02-21T15:39:15.540Z,12.3
2023-02-21T15:44:15.513Z,12.3
2023-02-21T15:49:15.512Z,12.3
2023-02-21T15:54:15.778Z,12.3
2023-02-21T15:59:15.521Z,12.3
2023-02-21T16:04:15.520Z,12.3
2023-02-21T16:09:15.569Z,12
2023-02-21T16:14:15.627Z,12.1
2023-02-21T16:19:15.592Z,12.1
2023-02-21T16:24:15.498Z,12.1
2023-02-21T16:29:15.824Z,12.1
2023-02-21T16:34:15.477Z,12.1
2023-02-21T16:39:15.511Z,12.1
2023-02-21T16:44:15.533Z,12.1
2023-02-21T16:49:15.524Z,12.1
2023-02-21T16:54:15.581Z,12.1
2023-02-21T16:59:15.554Z,12.1
2023-02-21T17:04:15.515Z,11.8
2023-02-21T17:09:15.599Z,11.8
2023-02-21T17:14:15.519Z,11.8
2023-02-21T17:19:15.545Z,11.7
2023-02-21T17:24:15.541Z,11.7
2023-02-21T17:29:15.527Z,11.7
2023-02-21T17:34:15.502Z,11.7
2023-02-21T17:39:15.528Z,11.6
2023-02-21T17:44:15.536Z,11.6
2023-02-21T17:49:15.525Z,11.5
2023-02-21T17:54:15.611Z,11.5
2023-02-21T17:59:15.581Z,11.5
2023-02-21T18:04:15.613Z,11.4
2023-02-21T18:09:15.519Z,11.3
2023-02-21T18:14:15.506Z,11.3
2023-02-21T18:19:15.587Z,11.3
2023-02-21T18:24:15.535Z,11.3
2023-02-21T18:29:15.530Z,11.3
2023-02-21T18:34:15.529Z,11.2
2023-02-21T18:39:15.641Z,11.2
2023-02-21T18:44:15.604Z,11.1
2023-02-21T18:49:15.637Z,11.1
2023-02-21T18:54:15.535Z,11.1
2023-02-21T18:59:15.720Z,11
2023-02-21T19:04:15.532Z,11
2023-02-21T19:09:15.545Z,11
2023-02-21T19:14:15.526Z,11
2023-02-21T19:19:15.559Z,10.9
2023-02-21T19:24:15.616Z,10.9
2023-02-21T19:29:15.536Z,10.9
2023-02-21T19:34:15.557Z,11
2023-02-21T19:39:15.795Z,11
2023-02-21T19:44:15.594Z,10.9
2023-02-21T19:49:15.622Z,11
2023-02-21T19:54:15.574Z,10.9
2023-02-21T19:59:15.598Z,10.9
2023-02-21T20:04:18.216Z,10.9
2023-02-21T20:09:15.553Z,10.9
2023-02-21T20:14:15.600Z,10.9
2023-02-21T20:19:15.588Z,10.8
2023-02-21T20:24:15.557Z,10.8
2023-02-21T20:29:15.536Z,10.8
2023-02-21T20:34:15.546Z,10.9
2023-02-21T20:39:15.648Z,10.9
2023-02-21T20:44:15.607Z,10.9
2023-02-21T20:49:15.543Z,10.8
2023-02-21T20:54:15.545Z,10.8
2023-02-21T20:59:15.618Z,10.8
2023-02-21T21:04:15.663Z,10.8
2023-02-21T21:09:15.544Z,10.8
2023-02-21T21:14:16.264Z,10.8
2023-02-21T21:19:15.564Z,10.9
2023-02-21T21:24:15.521Z,10.9
2023-02-21T21:29:15.534Z,10.9
2023-02-21T21:34:15.541Z,10.8
2023-02-21T21:39:15.578Z,10.8
2023-02-21T21:44:15.533Z,10.8
2023-02-21T21:49:15.526Z,10.7
2023-02-21T21:54:15.547Z,10.7
2023-02-21T21:59:15.538Z,10.7
2023-02-21T22:04:15.521Z,10.7
2023-02-21T22:09:15.752Z,10.8
2023-02-21T22:14:15.505Z,10.8
2023-02-21T22:19:15.539Z,10.7
2023-02-21T22:24:15.590Z,10.8
2023-02-21T22:29:15.806Z,10.8
2023-02-21T22:34:15.504Z,10.8
2023-02-21T22:39:15.525Z,10.8
2023-02-21T22:44:15.516Z,10.8
2023-02-21T22:49:15.741Z,10.8
2023-02-21T22:54:15.496Z,10.7
2023-02-21T22:59:15.553Z,10.8
2023-02-21T23:04:15.488Z,10.8
2023-02-21T23:09:15.486Z,10.8
2023-02-21T23:14:15.497Z,10.7
2023-02-21T23:19:15.583Z,10.7
2023-02-21T23:24:15.483Z,10.8
2023-02-21T23:29:15.475Z,10.7
2023-02-21T23:34:15.495Z,10.7
2023-02-21T23:39:15.570Z,10.8
2023-02-21T23:44:15.638Z,10.7
2023-02-21T23:49:15.993Z,10.7
2023-02-21T23:54:15.507Z,10.7
2023-02-21T23:59:15.540Z,10.7
